Řízení letového provozu České republiky
Letiste: LKMT Aktualizace: 22.09.2019 10:59:25  UTC
 METAR LKMT 22.09. 10:30 ...
METAR LKMT 221030Z 22012KT CAVOK 19/05 Q1018 NOSIG RMK REG QNH 1013=
 TAF LKMT 22.09. 05:00 ...
TAF LKMT 220500Z 2206/2312 22010KT CAVOK      BECMG 2219/2221 VRB02KT      BECMG 2307/2309 03006KT=